createdAt,value
2022-07-27T00:01:50.675Z,98955.47
2022-07-27T00:04:38.156Z,98956.22
2022-07-27T00:07:24.748Z,98975.78
2022-07-27T00:10:10.862Z,98934.72
2022-07-27T00:12:57.463Z,98949.88
2022-07-27T00:15:43.848Z,98967.00
2022-07-27T00:18:30.156Z,98924.28
2022-07-27T00:21:16.443Z,98903.59
2022-07-27T00:24:03.074Z,98953.31
2022-07-27T00:26:49.213Z,98954.16
2022-07-27T00:29:35.855Z,98972.63
2022-07-27T00:32:22.279Z,98968.97
2022-07-27T00:35:09.372Z,98934.75
2022-07-27T00:37:55.829Z,98961.34
2022-07-27T00:40:42.595Z,98963.16
2022-07-27T00:43:28.749Z,98939.94
2022-07-27T00:46:15.335Z,98937.81
2022-07-27T00:49:02.084Z,98945.94
2022-07-27T00:51:50.230Z,98967.34
2022-07-27T00:54:36.611Z,98943.81
2022-07-27T00:57:23.703Z,98947.38
2022-07-27T01:00:10.566Z,98940.38
2022-07-27T01:02:57.610Z,98944.59
2022-07-27T01:05:44.612Z,98934.59
2022-07-27T01:08:30.965Z,98955.41
2022-07-27T01:11:17.362Z,98947.56
2022-07-27T01:14:03.758Z,98920.03
2022-07-27T01:16:51.801Z,98960.91
2022-07-27T01:19:38.467Z,98943.91
2022-07-27T01:22:25.604Z,98942.19
2022-07-27T01:25:12.499Z,98924.84
2022-07-27T01:27:59.007Z,98935.34
2022-07-27T01:30:45.713Z,98915.50
2022-07-27T01:33:32.177Z,98905.69
2022-07-27T01:36:18.874Z,98938.34
2022-07-27T01:39:05.190Z,98935.06
2022-07-27T01:41:51.387Z,98920.53
2022-07-27T01:44:37.493Z,98918.97
2022-07-27T01:47:27.041Z,98922.91
2022-07-27T01:50:13.447Z,98904.97
2022-07-27T01:52:59.748Z,98921.44
2022-07-27T01:55:46.261Z,98949.09
2022-07-27T01:58:32.615Z,98931.97
2022-07-27T02:01:18.914Z,98907.91
2022-07-27T02:04:05.553Z,98917.00
2022-07-27T02:06:52.000Z,98898.09
2022-07-27T02:09:38.460Z,98892.34
2022-07-27T02:12:36.825Z,98916.50
2022-07-27T02:15:26.231Z,98879.50
2022-07-27T02:18:29.447Z,98900.22
2022-07-27T02:21:20.450Z,98896.91
2022-07-27T02:24:07.015Z,98913.63
2022-07-27T02:26:53.666Z,98902.00
2022-07-27T02:29:40.039Z,98887.38
2022-07-27T02:32:26.661Z,98855.63
2022-07-27T02:35:18.558Z,98910.19
2022-07-27T02:38:06.289Z,98913.88
2022-07-27T02:40:52.568Z,98920.25
2022-07-27T02:43:38.904Z,98888.81
2022-07-27T02:46:25.423Z,98903.31
2022-07-27T02:49:12.547Z,98896.41
2022-07-27T02:51:59.561Z,98904.03
2022-07-27T02:54:45.764Z,98921.13
2022-07-27T02:57:34.354Z,98916.16
2022-07-27T03:00:22.199Z,98902.75
2022-07-27T03:03:08.540Z,98923.34
2022-07-27T03:05:54.775Z,98901.00
2022-07-27T03:08:42.088Z,98907.63
2022-07-27T03:11:28.684Z,98896.34
2022-07-27T03:14:15.224Z,98901.09
2022-07-27T03:17:01.726Z,98881.47
2022-07-27T03:19:49.694Z,98921.50
2022-07-27T03:22:35.921Z,98905.34
2022-07-27T03:25:22.903Z,98914.63
2022-07-27T03:28:09.443Z,98886.34
2022-07-27T03:30:55.930Z,98912.25
2022-07-27T03:33:42.640Z,98884.97
2022-07-27T03:36:28.950Z,98933.81
2022-07-27T03:39:17.094Z,98941.53
2022-07-27T03:42:03.986Z,98918.25
2022-07-27T03:44:51.913Z,98914.50
2022-07-27T03:47:38.437Z,98918.00
2022-07-27T03:50:24.961Z,98927.34
2022-07-27T03:53:11.991Z,98847.66
2022-07-27T03:55:58.365Z,98922.56
2022-07-27T03:58:46.140Z,98921.69
2022-07-27T04:01:32.468Z,98926.09
2022-07-27T04:04:19.020Z,98931.63
2022-07-27T04:07:05.279Z,98915.38
2022-07-27T04:09:51.693Z,98917.88
2022-07-27T04:12:39.446Z,98929.91
2022-07-27T04:15:26.324Z,98938.41
2022-07-27T04:18:12.679Z,98931.41
2022-07-27T04:21:01.870Z,98958.94
2022-07-27T04:23:48.423Z,98935.88
2022-07-27T04:26:34.910Z,98924.94
2022-07-27T04:29:21.995Z,98937.19
2022-07-27T04:32:08.716Z,98941.72
2022-07-27T04:34:55.232Z,98949.66
2022-07-27T04:37:41.797Z,98946.56
2022-07-27T04:40:45.696Z,98958.81
2022-07-27T04:43:32.176Z,98918.50
2022-07-27T04:46:18.485Z,98956.09
2022-07-27T04:49:05.418Z,98956.84
2022-07-27T04:51:51.687Z,98945.50
2022-07-27T04:54:37.928Z,98942.94
2022-07-27T04:57:24.515Z,98956.59
2022-07-27T05:00:11.344Z,98966.16
2022-07-27T05:02:57.695Z,98965.31
2022-07-27T05:05:49.822Z,98945.41
2022-07-27T05:08:36.943Z,98960.66
2022-07-27T05:11:23.175Z,98957.38
2022-07-27T05:14:09.572Z,98988.03
2022-07-27T05:16:56.239Z,98969.66
2022-07-27T05:19:42.481Z,98975.22
2022-07-27T05:22:28.794Z,98981.03
2022-07-27T05:25:14.988Z,98970.22
2022-07-27T05:28:01.546Z,98981.75
2022-07-27T05:30:47.993Z,98953.41
2022-07-27T05:33:34.680Z,98975.84
2022-07-27T05:36:21.060Z,98981.28
2022-07-27T05:39:13.272Z,98997.16
2022-07-27T05:42:00.386Z,98996.56
2022-07-27T05:44:46.973Z,99016.59
2022-07-27T05:47:33.334Z,99007.47
2022-07-27T05:50:19.622Z,99002.84
2022-07-27T05:53:06.184Z,98976.72
2022-07-27T05:55:58.524Z,98975.13
2022-07-27T05:58:45.939Z,99024.22
2022-07-27T06:01:32.280Z,99024.69
2022-07-27T06:04:18.895Z,98996.09
2022-07-27T06:07:23.926Z,99006.97
2022-07-27T06:10:11.586Z,99025.94
2022-07-27T06:12:58.390Z,99007.00
2022-07-27T06:15:44.593Z,99027.19
2022-07-27T06:18:31.094Z,99002.00
2022-07-27T06:21:17.643Z,99016.81
2022-07-27T06:24:04.062Z,99039.50
2022-07-27T06:26:50.515Z,99020.13
2022-07-27T06:29:37.195Z,99032.56
2022-07-27T06:32:23.392Z,99010.97
2022-07-27T06:35:12.610Z,99028.47
2022-07-27T06:37:59.000Z,98986.78
2022-07-27T06:40:45.464Z,99034.69
2022-07-27T06:43:32.879Z,99016.84
2022-07-27T06:46:19.112Z,99012.06
2022-07-27T06:49:05.647Z,99009.75
2022-07-27T06:51:53.161Z,99014.88
2022-07-27T06:54:39.800Z,98990.56
2022-07-27T06:57:26.267Z,99021.19
2022-07-27T07:00:13.378Z,99040.16
2022-07-27T07:03:05.485Z,99039.81
2022-07-27T07:05:52.156Z,99037.94
2022-07-27T07:08:38.336Z,99020.41
2022-07-27T07:11:24.996Z,99040.34
2022-07-27T07:14:11.613Z,99012.13
2022-07-27T07:16:57.976Z,99018.88
2022-07-27T07:19:44.206Z,99047.53
2022-07-27T07:22:30.481Z,99012.34
2022-07-27T07:25:16.904Z,99022.72
2022-07-27T07:28:04.611Z,99018.66
2022-07-27T07:30:51.362Z,99021.47
2022-07-27T07:33:37.837Z,99029.44
2022-07-27T07:36:24.538Z,99040.31
2022-07-27T07:39:11.327Z,98993.63
2022-07-27T07:41:58.208Z,99022.63
2022-07-27T07:44:44.398Z,99041.06
2022-07-27T07:47:30.736Z,99004.31
2022-07-27T07:50:18.235Z,99006.09
2022-07-27T07:53:04.939Z,98995.72
2022-07-27T07:55:56.583Z,99006.94
2022-07-27T07:58:43.227Z,99003.34
2022-07-27T08:01:29.659Z,98982.84
2022-07-27T08:04:16.286Z,99031.44
2022-07-27T08:07:06.109Z,99010.03
2022-07-27T08:09:52.290Z,99034.22
2022-07-27T08:12:42.439Z,99007.81
2022-07-27T08:15:35.039Z,99040.66
2022-07-27T08:18:22.294Z,99040.81
2022-07-27T08:21:08.847Z,99048.97
2022-07-27T08:23:55.309Z,99048.31
2022-07-27T08:26:45.052Z,99027.13
2022-07-27T08:29:36.772Z,99023.88
2022-07-27T08:32:25.183Z,98993.16
2022-07-27T08:35:20.051Z,99030.63
2022-07-27T08:38:09.310Z,99044.13
2022-07-27T08:40:56.232Z,99052.03
2022-07-27T08:43:45.578Z,99053.22
2022-07-27T08:46:32.985Z,99050.47
2022-07-27T08:49:20.042Z,99037.34
2022-07-27T08:52:08.048Z,99021.78
2022-07-27T08:54:54.882Z,99037.00
2022-07-27T08:57:41.051Z,99036.28
2022-07-27T09:00:27.962Z,99048.75
2022-07-27T09:03:20.014Z,99004.41
2022-07-27T09:06:06.990Z,99028.25
2022-07-27T09:09:00.472Z,99022.28
2022-07-27T09:12:05.638Z,99016.69
2022-07-27T09:14:53.327Z,99022.91
2022-07-27T09:17:48.424Z,99028.38
2022-07-27T09:20:35.766Z,99013.94
2022-07-27T09:23:28.189Z,99026.50
2022-07-27T09:26:30.371Z,99036.59
2022-07-27T09:29:18.031Z,99000.63
2022-07-27T09:32:15.823Z,99000.75
2022-07-27T09:35:20.826Z,98990.56
2022-07-27T09:38:20.464Z,99030.97
2022-07-27T09:41:07.252Z,99032.13
2022-07-27T09:47:21.765Z,99016.09
2022-07-27T09:50:23.832Z,99027.44
2022-07-27T09:53:41.789Z,98995.13
2022-07-27T09:56:32.477Z,98999.22
2022-07-27T09:59:19.587Z,99020.28
2022-07-27T10:02:06.338Z,99025.91
2022-07-27T10:04:53.144Z,99025.06
2022-07-27T10:07:40.084Z,99007.53
2022-07-27T10:10:26.792Z,99021.88
2022-07-27T10:13:13.294Z,99002.19
2022-07-27T10:16:01.158Z,98997.78
2022-07-27T10:19:12.571Z,99007.25
2022-07-27T10:21:58.753Z,99000.25
2022-07-27T10:24:58.642Z,99006.91
2022-07-27T10:28:07.508Z,99003.91
2022-07-27T10:31:18.419Z,99019.91
2022-07-27T10:34:06.600Z,98989.38
2022-07-27T10:36:54.060Z,99005.59
2022-07-27T10:39:43.465Z,99009.91
2022-07-27T10:42:30.819Z,99005.28
2022-07-27T10:45:18.406Z,99019.25
2022-07-27T10:48:04.802Z,98986.13
2022-07-27T10:50:51.253Z,99030.75
2022-07-27T10:54:09.764Z,99030.91
2022-07-27T10:56:50.813Z,99009.25
2022-07-27T11:00:06.814Z,99021.81
2022-07-27T11:02:47.102Z,99007.88
2022-07-27T11:05:59.002Z,98979.09
2022-07-27T11:08:47.464Z,98997.50
2022-07-27T11:11:37.535Z,99009.97
2022-07-27T11:14:29.488Z,98998.81
2022-07-27T11:17:52.408Z,99022.19
2022-07-27T11:20:31.633Z,98998.94
2022-07-27T11:23:50.543Z,98989.50
2022-07-27T11:26:29.854Z,98980.75
2022-07-27T11:29:17.929Z,99010.06
2022-07-27T11:32:04.648Z,98984.06
2022-07-27T11:34:51.324Z,99001.16
2022-07-27T11:37:37.636Z,98993.03
2022-07-27T11:41:07.061Z,98966.31
2022-07-27T11:43:48.822Z,98981.84
2022-07-27T11:46:42.473Z,99014.16
2022-07-27T11:49:31.165Z,99006.13
2022-07-27T11:52:18.478Z,98980.97
2022-07-27T11:55:05.199Z,98974.22
2022-07-27T11:57:53.439Z,98965.41
2022-07-27T12:00:44.391Z,98983.41
2022-07-27T12:03:45.996Z,98941.72
2022-07-27T12:06:35.770Z,98972.25
2022-07-27T12:09:23.106Z,98977.56
2022-07-27T12:12:16.460Z,98978.75
2022-07-27T12:15:45.788Z,98974.19
2022-07-27T12:18:26.523Z,98955.66
2022-07-27T12:21:19.433Z,98966.00
2022-07-27T12:24:06.063Z,98963.53
2022-07-27T12:27:26.208Z,98984.50
2022-07-27T12:30:14.083Z,98992.19
2022-07-27T12:33:01.658Z,98987.53
2022-07-27T12:35:48.039Z,98958.56
2022-07-27T12:38:44.891Z,98992.31
2022-07-27T12:41:36.546Z,98988.53
2022-07-27T12:44:35.039Z,98990.84
2022-07-27T12:47:40.117Z,98958.19
2022-07-27T12:50:29.668Z,98979.97
2022-07-27T12:53:17.015Z,98979.69
2022-07-27T12:56:08.258Z,98968.59
2022-07-27T12:58:59.424Z,98949.34
2022-07-27T13:01:45.886Z,98953.91
2022-07-27T13:04:32.458Z,98924.63
2022-07-27T13:07:19.027Z,98979.81
2022-07-27T13:10:08.355Z,98954.91
2022-07-27T13:12:54.818Z,98936.06
2022-07-27T13:15:41.194Z,98931.47
2022-07-27T13:18:27.516Z,98923.28
2022-07-27T13:21:14.105Z,98937.66
2022-07-27T13:24:02.747Z,98974.06
2022-07-27T13:26:49.488Z,98942.69
2022-07-27T13:29:36.035Z,98939.91
2022-07-27T13:32:23.147Z,98934.94
2022-07-27T13:35:14.384Z,98944.97
2022-07-27T13:38:00.601Z,98954.47
2022-07-27T13:40:47.998Z,98935.63
2022-07-27T13:43:34.551Z,98923.44
2022-07-27T13:46:21.202Z,98932.38
2022-07-27T13:49:07.566Z,98945.84
2022-07-27T13:51:54.719Z,98919.94
2022-07-27T13:54:41.844Z,98947.44
2022-07-27T13:57:28.292Z,98916.03
2022-07-27T14:00:16.046Z,98923.44
2022-07-27T14:03:02.510Z,98932.81
2022-07-27T14:05:49.930Z,98947.06
2022-07-27T14:08:37.012Z,98926.94
2022-07-27T14:11:23.314Z,98926.44
2022-07-27T14:14:09.739Z,98925.66
2022-07-27T14:16:55.960Z,98929.69
2022-07-27T14:19:42.304Z,98920.72
2022-07-27T14:22:28.582Z,98916.22
2022-07-27T14:25:14.887Z,98925.69
2022-07-27T14:28:01.335Z,98924.47
2022-07-27T14:30:48.215Z,98941.97
2022-07-27T14:33:36.489Z,98932.13
2022-07-27T14:36:23.625Z,98919.84
2022-07-27T14:39:10.747Z,98914.84
2022-07-27T14:41:57.897Z,98920.00
2022-07-27T14:44:47.751Z,98916.75
2022-07-27T14:47:34.401Z,98909.00
2022-07-27T14:50:20.623Z,98913.75
2022-07-27T14:53:06.855Z,98915.69
2022-07-27T14:55:53.678Z,98928.28
2022-07-27T14:58:40.241Z,98917.19
2022-07-27T15:01:27.073Z,98899.22
2022-07-27T15:04:13.794Z,98911.13
2022-07-27T15:07:00.873Z,98925.69
2022-07-27T15:09:48.523Z,98915.78
2022-07-27T15:12:37.923Z,98938.69
2022-07-27T15:15:26.596Z,98921.28
2022-07-27T15:18:13.054Z,98898.44
2022-07-27T15:20:59.676Z,98921.75
2022-07-27T15:23:46.194Z,98920.41
2022-07-27T15:26:33.006Z,98916.91
2022-07-27T15:29:19.286Z,98906.03
2022-07-27T15:32:06.959Z,98926.44
2022-07-27T15:34:53.516Z,98934.00
2022-07-27T15:37:39.693Z,98918.69
2022-07-27T15:40:38.393Z,98904.41
2022-07-27T15:43:25.260Z,98912.69
2022-07-27T15:46:11.754Z,98915.66
2022-07-27T15:49:01.778Z,98931.19
2022-07-27T15:51:48.431Z,98899.72
2022-07-27T15:54:38.948Z,98917.09
2022-07-27T15:57:28.804Z,98868.88
2022-07-27T16:00:16.371Z,98919.56
2022-07-27T16:03:04.483Z,98896.34
2022-07-27T16:05:51.244Z,98888.56
2022-07-27T16:08:37.554Z,98896.13
2022-07-27T16:11:23.867Z,98876.78
2022-07-27T16:14:10.354Z,98886.41
2022-07-27T16:16:56.717Z,98901.53
2022-07-27T16:19:43.277Z,98876.38
2022-07-27T16:22:31.986Z,98904.28
2022-07-27T16:25:18.482Z,98885.78
2022-07-27T16:28:05.373Z,98892.34
2022-07-27T16:30:51.945Z,98868.56
2022-07-27T16:33:38.847Z,98896.41
2022-07-27T16:36:25.815Z,98881.81
2022-07-27T16:39:12.172Z,98877.47
2022-07-27T16:41:58.755Z,98869.31
2022-07-27T16:44:45.078Z,98866.97
2022-07-27T16:47:31.174Z,98869.81
2022-07-27T16:50:18.424Z,98888.50
2022-07-27T16:53:04.998Z,98876.50
2022-07-27T16:55:51.292Z,98866.41
2022-07-27T16:58:38.528Z,98831.81
2022-07-27T17:01:26.769Z,98892.34
2022-07-27T17:04:13.634Z,98867.53
2022-07-27T17:07:00.315Z,98825.31
2022-07-27T17:09:46.537Z,98876.59
2022-07-27T17:12:38.074Z,98871.84
2022-07-27T17:15:25.715Z,98869.94
2022-07-27T17:18:12.467Z,98898.72
2022-07-27T17:20:58.955Z,98851.75
2022-07-27T17:23:45.272Z,98880.25
2022-07-27T17:26:31.831Z,98859.97
2022-07-27T17:29:18.025Z,98882.69
2022-07-27T17:32:04.305Z,98879.56
2022-07-27T17:34:50.518Z,98862.06
2022-07-27T17:38:03.486Z,98856.56
2022-07-27T17:40:43.114Z,98865.50
2022-07-27T17:43:29.309Z,98885.41
2022-07-27T17:46:15.752Z,98867.22
2022-07-27T17:49:02.467Z,98888.38
2022-07-27T17:51:48.778Z,98884.28
2022-07-27T17:54:35.612Z,98892.13
2022-07-27T17:57:22.995Z,98895.50
2022-07-27T18:00:10.944Z,98885.81
2022-07-27T18:02:57.341Z,98871.25
2022-07-27T18:05:44.349Z,98863.63
2022-07-27T18:08:30.569Z,98891.59
2022-07-27T18:11:16.776Z,98877.53
2022-07-27T18:14:03.207Z,98889.19
2022-07-27T18:16:49.602Z,98899.44
2022-07-27T18:19:36.184Z,98880.50
2022-07-27T18:22:22.557Z,98861.75
2022-07-27T18:25:09.558Z,98858.16
2022-07-27T18:27:55.876Z,98893.31
2022-07-27T18:30:43.451Z,98891.88
2022-07-27T18:33:36.301Z,98860.97
2022-07-27T18:36:23.025Z,98900.69
2022-07-27T18:39:09.378Z,98880.69
2022-07-27T18:42:01.682Z,98874.97
2022-07-27T18:44:48.123Z,98912.31
2022-07-27T18:47:34.577Z,98925.91
2022-07-27T18:50:21.255Z,98906.28
2022-07-27T18:53:08.929Z,98909.25
2022-07-27T18:55:56.648Z,98909.63
2022-07-27T18:58:43.151Z,98892.66
2022-07-27T19:01:29.822Z,98905.06
2022-07-27T19:04:16.786Z,98908.69
2022-07-27T19:07:06.274Z,98936.69
2022-07-27T19:09:52.710Z,98922.41
2022-07-27T19:12:38.959Z,98934.94
2022-07-27T19:15:25.236Z,98916.28
2022-07-27T19:18:11.916Z,98932.66
2022-07-27T19:20:58.282Z,98937.22
2022-07-27T19:23:44.904Z,98948.47
2022-07-27T19:26:31.274Z,98957.97
2022-07-27T19:29:19.758Z,98938.22
2022-07-27T19:32:07.766Z,98943.56
2022-07-27T19:34:54.259Z,98956.41
2022-07-27T19:37:40.438Z,98922.31
2022-07-27T19:40:43.989Z,98943.56
2022-07-27T19:43:33.458Z,98942.06
2022-07-27T19:46:19.740Z,98947.25
2022-07-27T19:49:06.489Z,98963.84
2022-07-27T19:51:53.018Z,98950.09
2022-07-27T19:54:39.612Z,98948.47
2022-07-27T19:57:26.467Z,98951.09
2022-07-27T20:00:13.635Z,98969.38
2022-07-27T20:02:59.845Z,98945.94
2022-07-27T20:05:47.611Z,98946.19
2022-07-27T20:08:34.853Z,98946.69
2022-07-27T20:11:21.011Z,98964.56
2022-07-27T20:14:07.387Z,98965.69
2022-07-27T20:16:53.791Z,98962.13
2022-07-27T20:19:40.364Z,98951.59
2022-07-27T20:22:26.715Z,98960.53
2022-07-27T20:25:14.864Z,98955.72
2022-07-27T20:28:02.947Z,98964.47
2022-07-27T20:30:49.425Z,98945.38
2022-07-27T20:33:36.694Z,98953.19
2022-07-27T20:36:23.313Z,98946.50
2022-07-27T20:39:12.823Z,98940.59
2022-07-27T20:42:03.800Z,98952.75
2022-07-27T20:44:50.299Z,98960.44
2022-07-27T20:47:38.367Z,98983.75
2022-07-27T20:50:25.316Z,98957.16
2022-07-27T20:53:11.950Z,98959.31
2022-07-27T20:55:58.499Z,98969.84
2022-07-27T20:58:44.831Z,98952.22
2022-07-27T21:01:31.259Z,98959.06
2022-07-27T21:04:19.055Z,98974.69
2022-07-27T21:07:05.479Z,98979.56
2022-07-27T21:09:51.963Z,98960.63
2022-07-27T21:12:38.546Z,98946.75
2022-07-27T21:15:34.106Z,98965.63
2022-07-27T21:18:20.919Z,98966.50
2022-07-27T21:21:07.144Z,98953.44
2022-07-27T21:24:12.364Z,98961.69
2022-07-27T21:27:04.178Z,98969.25
2022-07-27T21:29:51.766Z,98971.25
2022-07-27T21:32:38.171Z,98954.81
2022-07-27T21:35:24.852Z,98982.09
2022-07-27T21:38:11.170Z,98979.66
2022-07-27T21:40:57.620Z,98965.19
2022-07-27T21:43:44.493Z,98974.97
2022-07-27T21:46:31.151Z,98986.81
2022-07-27T21:49:17.607Z,98981.56
2022-07-27T21:52:05.043Z,98965.63
2022-07-27T21:54:51.961Z,98940.66
2022-07-27T21:57:38.207Z,98936.38
2022-07-27T22:00:25.669Z,98993.75
2022-07-27T22:03:12.266Z,98970.75
2022-07-27T22:05:58.287Z,98967.81
2022-07-27T22:08:48.817Z,98998.28
2022-07-27T22:11:35.398Z,98967.00
2022-07-27T22:14:21.877Z,98972.88
2022-07-27T22:17:08.096Z,98983.75
2022-07-27T22:19:54.351Z,98976.50
2022-07-27T22:22:40.523Z,98970.34
2022-07-27T22:25:27.151Z,98960.44
2022-07-27T22:28:13.441Z,98976.09
2022-07-27T22:31:21.800Z,98950.97
2022-07-27T22:34:06.317Z,98996.81
2022-07-27T22:36:53.254Z,98988.66
2022-07-27T22:39:39.782Z,98970.06
2022-07-27T22:42:26.120Z,98978.13
2022-07-27T22:45:12.422Z,99001.38
2022-07-27T22:47:59.027Z,98962.28
2022-07-27T22:50:45.529Z,98999.44
2022-07-27T22:53:31.657Z,99008.13
2022-07-27T22:56:18.078Z,98979.38
2022-07-27T22:59:04.620Z,98955.47
2022-07-27T23:01:50.988Z,99001.94
2022-07-27T23:04:37.582Z,98966.41
2022-07-27T23:07:24.595Z,99002.78
2022-07-27T23:10:31.003Z,98959.00
2022-07-27T23:13:19.095Z,99002.78
2022-07-27T23:16:05.856Z,98971.31
2022-07-27T23:18:52.043Z,98987.50
2022-07-27T23:21:39.637Z,98968.94
2022-07-27T23:24:28.856Z,98998.22
2022-07-27T23:27:16.021Z,98982.06
2022-07-27T23:30:02.618Z,99012.19
2022-07-27T23:32:49.116Z,98994.41
2022-07-27T23:35:35.683Z,98928.28
2022-07-27T23:38:22.133Z,98976.41
2022-07-27T23:41:08.826Z,98982.22
2022-07-27T23:43:55.068Z,99003.03
2022-07-27T23:46:41.217Z,98991.06
2022-07-27T23:49:27.405Z,98991.88
2022-07-27T23:52:13.759Z,98970.34
2022-07-27T23:55:00.477Z,98992.13
2022-07-27T23:57:47.140Z,98950.09
